createdAt,value
2023-06-10T00:00:02.829Z,97377.63
2023-06-10T00:03:00.895Z,97371.82
2023-06-10T00:05:32.442Z,97368.17
2023-06-10T00:08:00.923Z,97366.23
2023-06-10T00:10:29.130Z,97362.98
2023-06-10T00:12:57.574Z,97362.06
2023-06-10T00:15:25.700Z,97358.73
2023-06-10T00:17:54.298Z,97356.64
2023-06-10T00:20:24.705Z,97357.17
2023-06-10T00:22:53.335Z,97356.25
2023-06-10T00:25:21.609Z,97356.79
2023-06-10T00:27:49.980Z,97356.70
2023-06-10T00:30:18.323Z,97352.99
2023-06-10T00:32:46.376Z,97354.16
2023-06-10T00:35:14.941Z,97354.94
2023-06-10T00:37:43.189Z,97356.31
2023-06-10T00:40:12.027Z,97355.70
2023-06-10T00:42:40.701Z,97359.11
2023-06-10T00:45:09.545Z,97357.85
2023-06-10T00:47:38.902Z,97355.08
2023-06-10T00:50:07.641Z,97357.86
2023-06-10T00:52:35.978Z,97356.38
2023-06-10T00:55:04.672Z,97357.46
2023-06-10T00:57:33.738Z,97356.61
2023-06-10T01:00:01.989Z,97359.24
2023-06-10T01:02:30.733Z,97359.40
2023-06-10T01:05:03.015Z,97356.77
2023-06-10T01:07:41.356Z,97359.86
2023-06-10T01:10:12.677Z,97358.15
2023-06-10T01:12:41.198Z,97355.36
2023-06-10T01:15:11.564Z,97360.70
2023-06-10T01:17:56.281Z,97362.02
2023-06-10T01:20:27.937Z,97356.74
2023-06-10T01:22:56.476Z,97357.69
2023-06-10T01:25:30.609Z,97356.75
2023-06-10T01:28:21.651Z,97352.19
2023-06-10T01:31:22.364Z,97353.66
2023-06-10T01:33:52.888Z,97349.46
2023-06-10T01:36:21.424Z,97350.16
2023-06-10T01:38:49.626Z,97351.31
2023-06-10T01:41:18.413Z,97351.86
2023-06-10T01:43:46.583Z,97354.87
2023-06-10T01:46:16.405Z,97351.92
2023-06-10T01:48:44.773Z,97354.39
2023-06-10T01:51:13.227Z,97354.10
2023-06-10T01:53:41.398Z,97352.55
2023-06-10T01:56:09.517Z,97355.80
2023-06-10T01:58:37.524Z,97356.88
2023-06-10T02:01:05.897Z,97357.19
2023-06-10T02:03:34.078Z,97357.95
2023-06-10T02:06:02.656Z,97355.55
2023-06-10T02:08:30.815Z,97359.19
2023-06-10T02:11:02.003Z,97357.10
2023-06-10T02:13:31.367Z,97360.73
2023-06-10T02:15:59.553Z,97358.49
2023-06-10T02:18:29.790Z,97356.64
2023-06-10T02:20:57.825Z,97355.02
2023-06-10T02:23:27.989Z,97356.17
2023-06-10T02:25:56.576Z,97357.17
2023-06-10T02:28:26.921Z,97357.64
2023-06-10T02:30:55.086Z,97356.63
2023-06-10T02:33:24.290Z,97351.45
2023-06-10T02:35:52.517Z,97354.39
2023-06-10T02:38:21.170Z,97352.08
2023-06-10T02:40:49.919Z,97349.51
2023-06-10T02:43:18.282Z,97345.33
2023-06-10T02:45:46.663Z,97344.09
2023-06-10T02:48:16.009Z,97341.92
2023-06-10T02:50:44.477Z,97340.69
2023-06-10T02:53:18.773Z,97345.79
2023-06-10T02:55:50.691Z,97348.58
2023-06-10T02:58:19.635Z,97345.70
2023-06-10T03:00:48.373Z,97346.48
2023-06-10T03:03:17.400Z,97342.70
2023-06-10T03:05:51.713Z,97342.30
2023-06-10T03:08:20.237Z,97340.84
2023-06-10T03:10:48.394Z,97340.14
2023-06-10T03:13:18.102Z,97338.36
2023-06-10T03:15:47.393Z,97342.46
2023-06-10T03:18:17.880Z,97342.47
2023-06-10T03:20:46.659Z,97344.48
2023-06-10T03:23:16.847Z,97346.96
2023-06-10T03:25:46.245Z,97345.48
2023-06-10T03:28:17.145Z,97349.91
2023-06-10T03:30:46.079Z,97347.98
2023-06-10T03:33:15.168Z,97350.20
2023-06-10T03:35:43.714Z,97351.22
2023-06-10T03:38:12.574Z,97350.36
2023-06-10T03:40:41.302Z,97351.69
2023-06-10T03:43:09.653Z,97351.45
2023-06-10T03:45:38.178Z,97353.23
2023-06-10T03:48:07.569Z,97353.23
2023-06-10T03:50:43.495Z,97355.10
2023-06-10T03:53:11.640Z,97354.70
2023-06-10T03:55:40.743Z,97353.47
2023-06-10T03:58:08.867Z,97351.52
2023-06-10T04:00:42.546Z,97348.05
2023-06-10T04:03:15.650Z,97348.36
2023-06-10T04:05:49.397Z,97352.16
2023-06-10T04:08:17.513Z,97352.77
2023-06-10T04:10:45.637Z,97351.14
2023-06-10T04:13:15.732Z,97350.46
2023-06-10T04:15:51.085Z,97350.61
2023-06-10T04:18:19.314Z,97352.23
2023-06-10T04:20:47.698Z,97356.88
2023-06-10T04:23:15.698Z,97354.26
2023-06-10T04:25:45.450Z,97355.34
2023-06-10T04:28:13.875Z,97355.42
2023-06-10T04:30:42.963Z,97354.33
2023-06-10T04:33:11.394Z,97359.20
2023-06-10T04:35:40.358Z,97360.83
2023-06-10T04:38:09.236Z,97358.36
2023-06-10T04:40:37.259Z,97360.76
2023-06-10T04:43:06.200Z,97360.61
2023-06-10T04:45:34.704Z,97360.45
2023-06-10T04:50:34.285Z,97358.31
2023-06-10T04:53:04.008Z,97361.48
2023-06-10T04:55:32.765Z,97360.56
2023-06-10T04:58:02.109Z,97358.56
2023-06-10T05:00:30.245Z,97356.80
2023-06-10T05:03:00.832Z,97357.24
2023-06-10T05:05:28.953Z,97357.73
2023-06-10T05:07:59.311Z,97363.08
2023-06-10T05:10:27.341Z,97360.83
2023-06-10T05:12:56.938Z,97361.92
2023-06-10T05:15:25.207Z,97360.13
2023-06-10T05:17:58.582Z,97360.69
2023-06-10T05:20:27.106Z,97362.15
2023-06-10T05:22:56.835Z,97364.02
2023-06-10T05:25:27.097Z,97362.17
2023-06-10T05:27:56.336Z,97361.48
2023-06-10T05:30:25.771Z,97362.57
2023-06-10T05:32:56.762Z,97366.52
2023-06-10T05:35:25.078Z,97364.27
2023-06-10T05:37:54.419Z,97364.98
2023-06-10T05:40:22.721Z,97364.66
2023-06-10T05:42:52.141Z,97365.30
2023-06-10T05:45:20.186Z,97363.91
2023-06-10T05:47:48.261Z,97367.23
2023-06-10T05:50:17.829Z,97364.99
2023-06-10T05:52:45.903Z,97364.84
2023-06-10T05:55:14.072Z,97366.46
2023-06-10T05:57:43.667Z,97369.40
2023-06-10T06:00:12.644Z,97371.13
2023-06-10T06:02:42.325Z,97375.61
2023-06-10T06:05:10.859Z,97376.92
2023-06-10T06:07:40.651Z,97373.06
2023-06-10T06:10:08.847Z,97377.48
2023-06-10T06:12:38.633Z,97379.05
2023-06-10T06:15:07.172Z,97377.81
2023-06-10T06:17:36.826Z,97377.98
2023-06-10T06:20:05.646Z,97374.42
2023-06-10T06:22:36.103Z,97375.52
2023-06-10T06:25:04.345Z,97374.68
2023-06-10T06:27:34.053Z,97372.35
2023-06-10T06:30:02.189Z,97372.99
2023-06-10T06:32:32.198Z,97372.37
2023-06-10T06:35:00.225Z,97370.52
2023-06-10T06:37:30.689Z,97370.59
2023-06-10T06:40:09.470Z,97368.60
2023-06-10T06:42:37.637Z,97362.55
2023-06-10T06:45:16.856Z,97362.73
2023-06-10T06:47:45.095Z,97364.89
2023-06-10T06:50:16.342Z,97363.18
2023-06-10T06:52:44.584Z,97362.79
2023-06-10T06:55:14.981Z,97359.23
2023-06-10T06:57:43.006Z,97356.91
2023-06-10T07:00:13.853Z,97359.09
2023-06-10T07:02:42.662Z,97356.33
2023-06-10T07:05:12.443Z,97355.08
2023-06-10T07:07:40.817Z,97350.52
2023-06-10T07:10:12.133Z,97350.96
2023-06-10T07:12:40.587Z,97350.36
2023-06-10T07:15:11.137Z,97352.30
2023-06-10T07:17:39.570Z,97349.31
2023-06-10T07:20:09.338Z,97350.79
2023-06-10T07:22:37.350Z,97352.04
2023-06-10T07:25:08.463Z,97347.40
2023-06-10T07:27:38.311Z,97348.33
2023-06-10T07:30:09.584Z,97348.09
2023-06-10T07:32:37.861Z,97348.41
2023-06-10T07:35:09.935Z,97345.30
2023-06-10T07:37:38.590Z,97349.57
2023-06-10T07:40:08.400Z,97345.55
2023-06-10T07:42:37.654Z,97347.17
2023-06-10T07:45:07.750Z,97340.74
2023-06-10T07:47:36.304Z,97343.39
2023-06-10T07:50:06.165Z,97341.91
2023-06-10T07:52:35.863Z,97341.08
2023-06-10T07:55:06.221Z,97342.39
2023-06-10T07:57:37.582Z,97343.95
2023-06-10T08:00:07.591Z,97345.11
2023-06-10T08:02:43.080Z,97342.48
2023-06-10T08:05:11.438Z,97342.55
2023-06-10T08:07:41.229Z,97340.48
2023-06-10T08:10:09.352Z,97344.80
2023-06-10T08:12:39.901Z,97343.25
2023-06-10T08:15:08.928Z,97344.97
2023-06-10T08:17:39.171Z,97344.89
2023-06-10T08:20:08.620Z,97344.83
2023-06-10T08:22:38.109Z,97344.05
2023-06-10T08:25:07.218Z,97339.17
2023-06-10T08:27:36.840Z,97335.70
2023-06-10T08:30:05.363Z,97336.40
2023-06-10T08:32:34.753Z,97340.35
2023-06-10T08:35:02.861Z,97338.58
2023-06-10T08:37:33.282Z,97338.59
2023-06-10T08:40:02.350Z,97336.89
2023-06-10T08:42:57.471Z,97334.49
2023-06-10T08:45:27.309Z,97335.41
2023-06-10T08:47:55.442Z,97331.62
2023-06-10T08:50:25.318Z,97327.06
2023-06-10T08:52:55.335Z,97323.81
2023-06-10T08:55:36.983Z,97321.73
2023-06-10T08:58:06.214Z,97322.42
2023-06-10T09:00:35.737Z,97322.27
2023-06-10T09:03:05.735Z,97318.80
2023-06-10T09:05:39.503Z,97315.70
2023-06-10T09:08:10.323Z,97312.37
2023-06-10T09:10:38.407Z,97312.06
2023-06-10T09:13:07.803Z,97312.84
2023-06-10T09:15:36.005Z,97310.75
2023-06-10T09:18:06.267Z,97303.48
2023-06-10T09:20:36.072Z,97304.17
2023-06-10T09:23:04.546Z,97306.11
2023-06-10T09:25:38.990Z,97302.85
2023-06-10T09:28:14.077Z,97297.77
2023-06-10T09:30:43.388Z,97301.55
2023-06-10T09:33:13.517Z,97297.99
2023-06-10T09:35:47.196Z,97293.58
2023-06-10T09:38:17.018Z,97293.04
2023-06-10T09:40:51.096Z,97293.90
2023-06-10T09:43:21.964Z,97290.96
2023-06-10T09:45:50.915Z,97293.83
2023-06-10T09:48:20.480Z,97294.52
2023-06-10T09:50:49.634Z,97296.48
2023-06-10T09:53:19.428Z,97291.59
2023-06-10T09:55:47.491Z,97293.98
2023-06-10T09:58:18.113Z,97289.49
2023-06-10T10:00:46.219Z,97283.00
2023-06-10T10:03:23.527Z,97284.77
2023-06-10T10:05:59.629Z,97284.48
2023-06-10T10:08:29.660Z,97283.09
2023-06-10T10:10:58.154Z,97281.55
2023-06-10T10:13:28.182Z,97278.45
2023-06-10T10:15:58.165Z,97276.36
2023-06-10T10:18:30.190Z,97276.36
2023-06-10T10:20:58.790Z,97274.50
2023-06-10T10:23:33.361Z,97275.66
2023-06-10T10:26:08.035Z,97276.34
2023-06-10T10:28:43.623Z,97270.39
2023-06-10T10:31:12.122Z,97265.91
2023-06-10T10:33:50.650Z,97262.10
2023-06-10T10:36:20.206Z,97260.63
2023-06-10T10:38:52.433Z,97260.24
2023-06-10T10:41:22.381Z,97254.20
2023-06-10T10:43:52.712Z,97257.07
2023-06-10T10:46:22.181Z,97254.83
2023-06-10T10:48:53.777Z,97251.88
2023-06-10T10:51:26.395Z,97240.58
2023-06-10T10:54:14.262Z,97246.23
2023-06-10T10:57:21.390Z,97242.74
2023-06-10T10:59:50.895Z,97239.02
2023-06-10T11:02:46.023Z,97237.63
2023-06-10T11:05:17.332Z,97234.30
2023-06-10T11:07:58.666Z,97231.83
2023-06-10T11:10:32.356Z,97231.52
2023-06-10T11:13:00.970Z,97225.30
2023-06-10T11:15:31.606Z,97227.71
2023-06-10T11:18:11.842Z,97222.92
2023-06-10T11:20:50.189Z,97216.03
2023-06-10T11:23:46.051Z,97216.17
2023-06-10T11:26:17.133Z,97219.13
2023-06-10T11:28:48.579Z,97212.77
2023-06-10T11:31:31.621Z,97209.45
2023-06-10T11:34:02.921Z,97205.50
2023-06-10T11:36:31.046Z,97200.55
2023-06-10T11:39:01.512Z,97200.55
2023-06-10T11:41:30.593Z,97201.32
2023-06-10T11:44:06.862Z,97196.44
2023-06-10T11:46:36.486Z,97197.89
2023-06-10T11:49:05.135Z,97200.04
2023-06-10T11:51:41.974Z,97199.42
2023-06-10T11:54:11.312Z,97198.89
2023-06-10T11:56:39.693Z,97198.02
2023-06-10T11:59:10.092Z,97198.88
2023-06-10T12:01:43.951Z,97198.26
2023-06-10T12:04:15.332Z,97198.48
2023-06-10T12:06:50.721Z,97200.67
2023-06-10T12:09:24.167Z,97204.92
2023-06-10T12:12:00.710Z,97205.23
2023-06-10T12:15:03.908Z,97206.70
2023-06-10T12:17:33.821Z,97201.51
2023-06-10T12:20:02.646Z,97200.16
2023-06-10T12:22:42.067Z,97195.59
2023-06-10T12:25:12.787Z,97194.51
2023-06-10T12:27:42.169Z,97192.65
2023-06-10T12:30:12.046Z,97185.75
2023-06-10T12:32:44.086Z,97189.01
2023-06-10T12:35:21.023Z,97188.14
2023-06-10T12:38:04.608Z,97189.00
2023-06-10T12:40:41.761Z,97182.02
2023-06-10T12:43:11.336Z,97184.66
2023-06-10T12:45:46.389Z,97178.85
2023-06-10T12:48:23.134Z,97174.98
2023-06-10T12:50:54.074Z,97175.05
2023-06-10T12:53:24.337Z,97181.95
2023-06-10T12:55:53.683Z,97180.70
2023-06-10T12:58:23.211Z,97181.56
2023-06-10T13:00:56.339Z,97178.00
2023-06-10T13:03:24.385Z,97175.36
2023-06-10T13:05:54.136Z,97174.20
2023-06-10T13:08:22.295Z,97170.42
2023-06-10T13:10:51.906Z,97170.98
2023-06-10T13:13:20.291Z,97176.41
2023-06-10T13:15:51.229Z,97183.46
2023-06-10T13:18:20.263Z,97180.90
2023-06-10T13:20:50.093Z,97177.64
2023-06-10T13:23:18.058Z,97173.92
2023-06-10T13:25:48.764Z,97173.39
2023-06-10T13:28:17.102Z,97180.59
2023-06-10T13:30:46.636Z,97186.48
2023-06-10T13:33:14.804Z,97195.08
2023-06-10T13:35:45.163Z,97205.94
2023-06-10T13:38:13.749Z,97208.25
2023-06-10T13:40:43.843Z,97202.52
2023-06-10T13:43:12.515Z,97204.10
2023-06-10T13:45:42.004Z,97215.18
2023-06-10T13:48:10.351Z,97224.55
2023-06-10T13:50:39.822Z,97233.00
2023-06-10T13:53:07.833Z,97224.00
2023-06-10T13:55:38.308Z,97218.66
2023-06-10T13:58:06.669Z,97211.15
2023-06-10T14:00:37.027Z,97212.38
2023-06-10T14:03:05.265Z,97219.88
2023-06-10T14:05:35.693Z,97245.50
2023-06-10T14:08:04.111Z,97259.91
2023-06-10T14:10:33.971Z,97254.10
2023-06-10T14:13:01.995Z,97246.58
2023-06-10T14:15:33.480Z,97239.98
2023-06-10T14:18:02.367Z,97231.70
2023-06-10T14:20:32.640Z,97233.62
2023-06-10T14:23:00.914Z,97235.01
2023-06-10T14:25:30.466Z,97232.92
2023-06-10T14:27:59.414Z,97236.70
2023-06-10T14:30:28.716Z,97246.91
2023-06-10T14:32:56.875Z,97256.73
2023-06-10T14:35:26.516Z,97260.83
2023-06-10T14:37:54.526Z,97268.41
2023-06-10T14:40:24.124Z,97263.38
2023-06-10T14:42:53.492Z,97255.31
2023-06-10T14:45:21.558Z,97248.34
2023-06-10T14:47:52.008Z,97245.01
2023-06-10T14:50:20.454Z,97245.30
2023-06-10T14:52:50.776Z,97247.25
2023-06-10T14:55:19.381Z,97244.06
2023-06-10T14:57:50.213Z,97247.45
2023-06-10T15:00:21.088Z,97247.08
2023-06-10T15:02:50.948Z,97244.66
2023-06-10T15:05:20.686Z,97239.30
2023-06-10T15:07:50.094Z,97228.08
2023-06-10T15:10:21.036Z,97221.80
2023-06-10T15:12:57.326Z,97223.05
2023-06-10T15:15:27.914Z,97227.22
2023-06-10T15:17:56.986Z,97221.40
2023-06-10T15:20:26.387Z,97225.51
2023-06-10T15:22:55.022Z,97223.49
2023-06-10T15:25:31.129Z,97222.25
2023-06-10T15:28:01.229Z,97221.47
2023-06-10T15:30:29.332Z,97223.17
2023-06-10T15:32:58.743Z,97222.55
2023-06-10T15:35:28.275Z,97227.80
2023-06-10T15:37:56.515Z,97228.44
2023-06-10T15:40:27.440Z,97228.04
2023-06-10T15:42:55.915Z,97232.21
2023-06-10T15:45:26.350Z,97229.82
2023-06-10T15:47:54.743Z,97232.20
2023-06-10T15:50:25.205Z,97235.69
2023-06-10T15:52:53.283Z,97235.92
2023-06-10T15:55:23.678Z,97238.95
2023-06-10T15:57:51.740Z,97238.95
2023-06-10T16:00:22.068Z,97237.09
2023-06-10T16:02:50.369Z,97232.83
2023-06-10T16:05:20.811Z,97229.33
2023-06-10T16:07:48.938Z,97225.79
2023-06-10T16:10:18.801Z,97226.48
2023-06-10T16:12:46.810Z,97223.07
2023-06-10T16:15:17.565Z,97222.60
2023-06-10T16:17:46.865Z,97226.55
2023-06-10T16:20:16.604Z,97226.09
2023-06-10T16:22:44.920Z,97225.94
2023-06-10T16:25:15.436Z,97223.84
2023-06-10T16:27:43.498Z,97219.91
2023-06-10T16:30:17.001Z,97219.98
2023-06-10T16:32:45.028Z,97217.98
2023-06-10T16:35:14.684Z,97219.29
2023-06-10T16:37:43.278Z,97210.09
2023-06-10T16:40:13.784Z,97209.88
2023-06-10T16:42:42.184Z,97214.84
2023-06-10T16:45:12.642Z,97213.29
2023-06-10T16:47:41.081Z,97210.73
2023-06-10T16:50:10.774Z,97206.02
2023-06-10T16:52:39.070Z,97209.13
2023-06-10T16:55:10.028Z,97209.05
2023-06-10T16:57:38.347Z,97206.88
2023-06-10T17:00:09.886Z,97207.34
2023-06-10T17:02:37.906Z,97210.45
2023-06-10T17:05:08.152Z,97213.53
2023-06-10T17:07:36.417Z,97208.87
2023-06-10T17:10:07.562Z,97210.81
2023-06-10T17:12:35.643Z,97207.95
2023-06-10T17:15:05.803Z,97207.09
2023-06-10T17:17:35.093Z,97208.89
2023-06-10T17:20:06.395Z,97204.53
2023-06-10T17:22:34.531Z,97205.62
2023-06-10T17:25:03.971Z,97205.46
2023-06-10T17:27:32.218Z,97202.89
2023-06-10T17:30:02.004Z,97206.08
2023-06-10T17:32:30.287Z,97205.28
2023-06-10T17:35:01.186Z,97202.27
2023-06-10T17:37:29.334Z,97205.13
2023-06-10T17:40:00.273Z,97203.50
2023-06-10T17:42:28.433Z,97200.09
2023-06-10T17:44:58.043Z,97201.64
2023-06-10T17:47:26.218Z,97204.34
2023-06-10T17:49:56.583Z,97205.19
2023-06-10T17:52:24.579Z,97211.91
2023-06-10T17:54:54.943Z,97210.98
2023-06-10T17:57:23.594Z,97212.05
2023-06-10T17:59:54.127Z,97212.59
2023-06-10T18:02:22.708Z,97212.91
2023-06-10T18:04:52.398Z,97212.98
2023-06-10T18:07:20.525Z,97212.67
2023-06-10T18:09:50.952Z,97213.13
2023-06-10T18:12:19.248Z,97214.13
2023-06-10T18:14:49.599Z,97218.38
2023-06-10T18:17:17.731Z,97219.46
2023-06-10T18:19:48.226Z,97223.63
2023-06-10T18:22:16.440Z,97226.41
2023-06-10T18:24:46.885Z,97228.88
2023-06-10T18:27:16.784Z,97232.74
2023-06-10T18:29:46.595Z,97233.91
2023-06-10T18:32:14.968Z,97238.02
2023-06-10T18:34:44.351Z,97237.77
2023-06-10T18:37:12.430Z,97237.45
2023-06-10T18:39:42.936Z,97238.92
2023-06-10T18:42:11.245Z,97240.46
2023-06-10T18:44:41.878Z,97245.73
2023-06-10T18:47:09.944Z,97248.06
2023-06-10T18:49:39.745Z,97251.60
2023-06-10T18:52:08.182Z,97254.38
2023-06-10T18:54:37.661Z,97253.70
2023-06-10T18:57:07.137Z,97252.91
2023-06-10T18:59:36.611Z,97253.13
2023-06-10T19:02:05.056Z,97251.66
2023-06-10T19:04:34.584Z,97254.67
2023-06-10T19:07:03.082Z,97259.38
2023-06-10T19:09:32.477Z,97261.95
2023-06-10T19:12:00.857Z,97261.64
2023-06-10T19:14:30.682Z,97261.09
2023-06-10T19:16:58.846Z,97265.11
2023-06-10T19:19:29.225Z,97265.26
2023-06-10T19:21:57.632Z,97268.04
2023-06-10T19:24:28.021Z,97263.70
2023-06-10T19:26:56.073Z,97264.56
2023-06-10T19:29:26.572Z,97263.95
2023-06-10T19:31:54.689Z,97262.48
2023-06-10T19:34:25.190Z,97263.17
2023-06-10T19:36:53.288Z,97268.73
2023-06-10T19:39:22.943Z,97267.27
2023-06-10T19:41:51.178Z,97265.16
2023-06-10T19:44:21.604Z,97265.71
2023-06-10T19:46:49.956Z,97262.92
2023-06-10T19:49:20.225Z,97261.20
2023-06-10T19:51:50.236Z,97263.61
2023-06-10T19:54:20.128Z,97263.61
2023-06-10T19:56:48.235Z,97261.37
2023-06-10T19:59:17.916Z,97256.73
2023-06-10T20:01:46.545Z,97251.00
2023-06-10T20:04:16.582Z,97250.69
2023-06-10T20:06:45.147Z,97252.00
2023-06-10T20:09:14.710Z,97247.52
2023-06-10T20:11:42.932Z,97252.15
2023-06-10T20:14:14.333Z,97252.15
2023-06-10T20:16:42.795Z,97250.45
2023-06-10T20:19:12.312Z,97248.42
2023-06-10T20:21:41.428Z,97245.41
2023-06-10T20:24:11.046Z,97244.80
2023-06-10T20:26:39.171Z,97247.42
2023-06-10T20:29:09.741Z,97241.00
2023-06-10T20:31:38.099Z,97235.91
2023-06-10T20:34:07.567Z,97232.80
2023-06-10T20:36:35.775Z,97230.26
2023-06-10T20:39:06.608Z,97228.71
2023-06-10T20:41:35.648Z,97230.41
2023-06-10T20:44:05.497Z,97226.92
2023-06-10T20:46:33.723Z,97225.63
2023-06-10T20:49:03.339Z,97228.01
2023-06-10T20:51:31.392Z,97226.69
2023-06-10T20:54:01.813Z,97227.30
2023-06-10T20:56:29.974Z,97229.47
2023-06-10T20:59:00.645Z,97223.90
2023-06-10T21:01:29.023Z,97226.60
2023-06-10T21:03:59.474Z,97229.39
2023-06-10T21:06:28.491Z,97228.15
2023-06-10T21:08:58.071Z,97231.70
2023-06-10T21:11:26.591Z,97230.62
2023-06-10T21:13:57.108Z,97229.45
2023-06-10T21:16:25.373Z,97226.77
2023-06-10T21:18:56.330Z,97223.34
2023-06-10T21:21:24.435Z,97223.34
2023-06-10T21:23:55.478Z,97223.11
2023-06-10T21:26:23.596Z,97218.16
2023-06-10T21:28:52.893Z,97212.60
2023-06-10T21:31:21.389Z,97210.20
2023-06-10T21:33:51.047Z,97210.88
2023-06-10T21:36:19.625Z,97211.04
2023-06-10T21:38:49.293Z,97208.80
2023-06-10T21:41:17.514Z,97206.16
2023-06-10T21:43:48.033Z,97208.40
2023-06-10T21:46:16.044Z,97208.71
2023-06-10T21:48:46.516Z,97206.85
2023-06-10T21:51:14.544Z,97209.89
2023-06-10T21:53:44.932Z,97204.69
2023-06-10T21:56:37.857Z,97204.92
2023-06-10T21:59:07.183Z,97204.92
2023-06-10T22:01:36.899Z,97208.48
2023-06-10T22:04:06.365Z,97207.08
2023-06-10T22:06:34.944Z,97211.09
2023-06-10T22:09:04.344Z,97212.57
2023-06-10T22:11:32.611Z,97212.88
2023-06-10T22:14:03.025Z,97210.64
2023-06-10T22:16:31.665Z,97213.04
2023-06-10T22:19:02.776Z,97213.42
2023-06-10T22:21:31.206Z,97212.96
2023-06-10T22:24:01.130Z,97209.56
2023-06-10T22:26:40.021Z,97210.25
2023-06-10T22:29:13.233Z,97207.77
2023-06-10T22:31:41.474Z,97206.45
2023-06-10T22:34:11.915Z,97202.42
2023-06-10T22:36:40.328Z,97200.33
2023-06-10T22:39:13.340Z,97195.68
2023-06-10T22:41:41.518Z,97196.94
2023-06-10T22:44:11.106Z,97192.60
2023-06-10T22:46:39.163Z,97191.67
2023-06-10T22:49:11.720Z,97190.67
2023-06-10T22:51:39.935Z,97189.97
2023-06-10T22:54:10.360Z,97192.30
2023-06-10T22:56:38.506Z,97191.05
2023-06-10T22:59:08.883Z,97189.12
2023-06-10T23:01:36.994Z,97187.34
2023-06-10T23:04:08.083Z,97189.80
2023-06-10T23:06:36.312Z,97186.41
2023-06-10T23:09:06.374Z,97187.34
2023-06-10T23:11:34.449Z,97183.70
2023-06-10T23:14:04.865Z,97186.56
2023-06-10T23:16:57.636Z,97184.48
2023-06-10T23:19:28.205Z,97180.30
2023-06-10T23:21:57.478Z,97181.98
2023-06-10T23:24:30.215Z,97181.21
2023-06-10T23:26:59.777Z,97178.89
2023-06-10T23:29:29.794Z,97178.89
2023-06-10T23:31:58.554Z,97178.98
2023-06-10T23:34:28.083Z,97177.20
2023-06-10T23:36:57.634Z,97175.58
2023-06-10T23:39:27.003Z,97176.64
2023-06-10T23:41:55.452Z,97173.86
2023-06-10T23:44:26.018Z,97174.95
2023-06-10T23:46:54.187Z,97173.33
2023-06-10T23:49:24.634Z,97171.61
2023-06-10T23:51:52.647Z,97171.22
2023-06-10T23:54:22.960Z,97173.86
2023-06-10T23:56:50.976Z,97171.38
2023-06-10T23:59:21.379Z,97171.69
